createdAt,value
2018-05-09T00:04:50.322Z,73.90
2018-05-09T00:09:53.959Z,74.40
2018-05-09T00:14:57.605Z,75.30
2018-05-09T00:20:00.844Z,76.20
2018-05-09T00:25:04.212Z,76.80
2018-05-09T00:30:08.230Z,78.00
2018-05-09T00:35:12.042Z,78.40
2018-05-09T00:40:15.342Z,78.40
2018-05-09T00:45:18.752Z,77.90
2018-05-09T00:50:22.080Z,77.70
2018-05-09T00:55:25.897Z,77.50
2018-05-09T01:00:29.765Z,78.30
2018-05-09T01:05:33.531Z,78.10
2018-05-09T01:10:37.180Z,79.40
2018-05-09T01:15:40.465Z,79.40
2018-05-09T01:20:43.747Z,79.40
2018-05-09T01:25:47.155Z,80.20
2018-05-09T01:30:50.670Z,80.80
2018-05-09T01:35:53.898Z,81.30
2018-05-09T01:40:57.153Z,81.40
2018-05-09T01:46:00.589Z,81.50
2018-05-09T01:51:04.409Z,81.60
2018-05-09T01:56:08.151Z,81.60
2018-05-09T02:01:11.416Z,81.70
2018-05-09T02:06:14.639Z,81.70
2018-05-09T02:11:17.863Z,81.70
2018-05-09T02:16:21.485Z,83.00
2018-05-09T02:21:24.746Z,83.00
2018-05-09T02:26:28.434Z,83.20
2018-05-09T02:31:31.708Z,82.80
2018-05-09T02:36:36.924Z,83.30
2018-05-09T02:41:40.155Z,83.30
2018-05-09T02:46:43.877Z,83.20
2018-05-09T02:51:47.149Z,83.20
2018-05-09T02:56:50.384Z,82.90
2018-05-09T03:01:54.035Z,84.80
2018-05-09T03:06:57.251Z,84.80
2018-05-09T03:12:00.481Z,84.90
2018-05-09T03:17:03.733Z,84.70
2018-05-09T03:22:06.974Z,84.50
2018-05-09T03:27:10.235Z,85.80
2018-05-09T03:32:13.838Z,87.20
2018-05-09T03:37:17.079Z,87.20
2018-05-09T03:42:20.319Z,88.30
2018-05-09T03:47:23.536Z,88.70
2018-05-09T03:52:26.783Z,88.20
2018-05-09T03:57:30.019Z,88.10
2018-05-09T04:02:46.094Z,87.60
2018-05-09T04:08:01.333Z,88.10
2018-05-09T04:13:04.664Z,89.20
2018-05-09T04:18:07.856Z,89.70
2018-05-09T04:23:12.272Z,88.60
2018-05-09T04:28:15.779Z,88.90
2018-05-09T04:33:18.881Z,89.00
2018-05-09T04:38:22.107Z,89.10
2018-05-09T04:43:25.354Z,89.50
2018-05-09T04:48:28.989Z,87.40
2018-05-09T04:53:32.260Z,86.60
2018-05-09T04:58:35.969Z,87.10
2018-05-09T05:03:39.189Z,87.10
2018-05-09T05:08:42.800Z,87.70
2018-05-09T05:13:46.415Z,88.10
2018-05-09T05:18:50.064Z,88.10
2018-05-09T05:23:53.288Z,88.10
2018-05-09T05:28:56.538Z,88.80
2018-05-09T05:34:00.249Z,90.10
2018-05-09T05:39:03.527Z,90.10
2018-05-09T05:44:06.935Z,89.80
2018-05-09T05:49:10.172Z,89.50
2018-05-09T05:54:13.403Z,88.50
2018-05-09T05:59:16.624Z,87.50
2018-05-09T06:04:19.992Z,87.50
2018-05-09T06:09:23.637Z,86.10
2018-05-09T06:14:27.010Z,86.10
2018-05-09T06:19:30.335Z,85.90
2018-05-09T06:24:34.042Z,84.20
2018-05-09T06:29:37.292Z,84.20
2018-05-09T06:34:40.655Z,83.40
2018-05-09T06:39:43.963Z,83.00
2018-05-09T06:44:47.198Z,83.20
2018-05-09T06:49:50.490Z,83.20
2018-05-09T06:54:54.104Z,82.70
2018-05-09T06:59:57.741Z,81.60
2018-05-09T07:05:01.123Z,81.60
2018-05-09T07:10:04.745Z,80.50
2018-05-09T07:15:08.367Z,80.80
2018-05-09T07:20:11.983Z,81.20
2018-05-09T07:25:15.199Z,81.20
2018-05-09T07:30:18.429Z,78.60
2018-05-09T07:35:21.785Z,79.70
2018-05-09T07:40:25.444Z,80.20
2018-05-09T07:45:28.800Z,80.20
2018-05-09T07:50:32.016Z,78.20
2018-05-09T07:55:35.683Z,77.10
2018-05-09T08:00:39.029Z,77.10
2018-05-09T08:05:42.256Z,77.10
2018-05-09T08:10:45.875Z,76.30
2018-05-09T08:15:49.102Z,76.30
2018-05-09T08:20:52.363Z,76.90
2018-05-09T08:25:55.973Z,78.00
2018-05-09T08:30:59.220Z,78.00
2018-05-09T08:36:02.476Z,75.10
2018-05-09T08:41:05.814Z,74.70
2018-05-09T08:46:09.042Z,76.90
2018-05-09T08:51:12.256Z,74.90
2018-05-09T08:56:15.496Z,73.70
2018-05-09T09:01:18.795Z,74.30
2018-05-09T09:06:22.098Z,73.90
2018-05-09T09:11:25.673Z,72.60
2018-05-09T09:16:28.962Z,72.60
2018-05-09T09:21:32.966Z,72.10
2018-05-09T09:26:36.481Z,72.10
2018-05-09T09:31:40.104Z,69.70
2018-05-09T09:36:43.733Z,69.10
2018-05-09T09:41:46.979Z,69.10
2018-05-09T09:46:50.204Z,69.10
2018-05-09T09:51:53.452Z,68.60
2018-05-09T09:56:56.670Z,69.20
2018-05-09T10:02:00.034Z,70.30
2018-05-09T10:07:03.264Z,68.90
2018-05-09T10:12:06.500Z,69.50
2018-05-09T10:17:09.740Z,69.50
2018-05-09T10:22:13.195Z,68.40
2018-05-09T10:27:16.478Z,68.60
2018-05-09T10:32:20.215Z,66.30
2018-05-09T10:37:23.431Z,66.30
2018-05-09T10:42:26.638Z,66.50
2018-05-09T10:47:29.921Z,66.50
2018-05-09T10:52:33.117Z,67.30
2018-05-09T10:57:36.743Z,66.90
2018-05-09T11:02:40.359Z,62.90
2018-05-09T11:07:44.176Z,61.70
2018-05-09T11:12:48.226Z,61.80
2018-05-09T11:17:51.468Z,61.80
2018-05-09T11:22:54.705Z,62.60
2018-05-09T11:27:58.411Z,58.40
2018-05-09T11:33:01.654Z,58.40
2018-05-09T11:38:04.882Z,58.00
2018-05-09T11:43:08.247Z,58.50
2018-05-09T11:48:11.477Z,57.50
2018-05-09T11:53:14.832Z,57.60
2018-05-09T11:58:18.151Z,59.40
2018-05-09T12:03:21.781Z,55.80
2018-05-09T12:08:25.053Z,55.80
2018-05-09T12:13:28.276Z,54.80
2018-05-09T12:18:31.530Z,53.60
2018-05-09T12:23:34.742Z,51.90
2018-05-09T12:28:37.969Z,51.10
2018-05-09T12:33:41.187Z,52.60
2018-05-09T12:38:44.508Z,53.10
2018-05-09T12:43:47.765Z,54.00
2018-05-09T12:48:51.106Z,53.20
2018-05-09T12:53:54.268Z,54.30
2018-05-09T12:58:57.494Z,53.50
2018-05-09T13:04:00.744Z,53.20
2018-05-09T13:09:04.460Z,52.00
2018-05-09T13:14:08.180Z,51.40
2018-05-09T13:19:11.804Z,51.40
2018-05-09T13:24:15.061Z,51.40
2018-05-09T13:29:18.296Z,49.70
2018-05-09T13:34:21.535Z,50.50
2018-05-09T13:39:24.775Z,49.50
2018-05-09T13:44:28.015Z,52.80
2018-05-09T13:49:31.628Z,56.80
2018-05-09T13:54:35.293Z,56.50
2018-05-09T13:59:38.507Z,56.50
2018-05-09T14:04:41.762Z,55.10
2018-05-09T14:09:45.159Z,54.90
2018-05-09T14:14:48.785Z,54.60
2018-05-09T14:19:52.124Z,54.60
2018-05-09T14:24:55.367Z,55.30
2018-05-09T14:29:58.604Z,55.10
2018-05-09T14:35:02.453Z,52.10
2018-05-09T14:40:05.713Z,50.60
2018-05-09T14:45:10.328Z,49.70
2018-05-09T14:50:13.937Z,49.90
2018-05-09T14:55:17.167Z,49.90
2018-05-09T15:00:20.468Z,48.40
2018-05-09T15:05:23.730Z,47.60
2018-05-09T15:10:27.075Z,50.80
2018-05-09T15:15:30.330Z,50.10
2018-05-09T15:20:34.072Z,49.40
2018-05-09T15:25:37.883Z,48.90
2018-05-09T15:30:41.529Z,49.40
2018-05-09T15:35:44.889Z,49.40
2018-05-09T15:40:48.574Z,51.70
2018-05-09T15:45:52.621Z,51.70
2018-05-09T15:50:56.249Z,49.90
2018-05-09T15:55:59.490Z,49.90
2018-05-09T16:01:02.847Z,49.50
2018-05-09T16:06:06.487Z,47.70
2018-05-09T16:11:10.515Z,47.70
2018-05-09T16:16:13.840Z,46.00
2018-05-09T16:21:17.181Z,45.80
2018-05-09T16:26:20.813Z,45.40
2018-05-09T16:31:24.185Z,45.40
2018-05-09T16:36:27.852Z,45.10
2018-05-09T16:41:31.210Z,45.10
2018-05-09T16:46:35.228Z,45.40
2018-05-09T16:51:38.538Z,45.40
2018-05-09T16:56:41.784Z,47.20
2018-05-09T17:01:45.022Z,51.90
2018-05-09T17:06:48.652Z,55.00
2018-05-09T17:11:52.157Z,55.00
2018-05-09T17:16:55.445Z,56.40
2018-05-09T17:22:16.725Z,60.70
2018-05-09T17:27:19.977Z,60.70
2018-05-09T17:32:23.616Z,62.50
2018-05-09T17:37:27.022Z,62.50
2018-05-09T17:42:30.291Z,62.80
2018-05-09T17:47:33.521Z,63.00
2018-05-09T17:52:36.799Z,63.20
2018-05-09T17:57:40.466Z,69.60
2018-05-09T18:02:43.691Z,69.70
2018-05-09T18:07:46.978Z,69.80
2018-05-09T18:12:50.289Z,71.10
2018-05-09T18:17:53.513Z,73.00
2018-05-09T18:22:57.137Z,73.90
2018-05-09T18:28:00.392Z,73.80
2018-05-09T18:33:03.627Z,73.70
2018-05-09T18:38:29.938Z,73.40
2018-05-09T18:49:13.019Z,74.30
2018-05-09T18:54:22.116Z,77.50
2018-05-09T18:59:26.176Z,79.30
2018-05-09T19:04:31.897Z,80.70
2018-05-09T19:09:38.842Z,79.60
2018-05-09T19:14:45.645Z,76.20
2018-05-09T19:19:49.665Z,76.10
2018-05-09T19:24:53.034Z,76.30
2018-05-09T19:29:56.750Z,74.00
2018-05-09T19:35:00.388Z,76.90
2018-05-09T19:40:04.376Z,78.30
2018-05-09T19:45:07.618Z,78.30
2018-05-09T19:50:10.877Z,79.80
2018-05-09T19:55:14.521Z,79.30
2018-05-09T20:00:17.757Z,79.30
2018-05-09T20:05:21.071Z,79.20
2018-05-09T20:10:24.607Z,79.40
2018-05-09T20:15:29.316Z,79.90
2018-05-09T20:20:32.589Z,79.90
2018-05-09T20:25:35.873Z,81.70
2018-05-09T20:30:45.100Z,81.00
2018-05-09T20:35:48.732Z,83.10
2018-05-09T20:40:52.456Z,83.90
2018-05-09T20:45:55.675Z,83.80
2018-05-09T20:50:58.917Z,84.00
2018-05-09T20:56:02.168Z,83.40
2018-05-09T21:01:17.431Z,83.80
2018-05-09T21:06:21.095Z,83.70
2018-05-09T21:11:24.728Z,83.80
2018-05-09T21:16:28.067Z,83.90
2018-05-09T21:21:31.514Z,84.20
2018-05-09T21:26:36.349Z,85.30
2018-05-09T21:31:39.630Z,85.90
2018-05-09T21:36:43.447Z,87.90
2018-05-09T21:41:46.705Z,87.90
2018-05-09T21:46:50.088Z,88.10
2018-05-09T21:51:53.598Z,87.90
2018-05-09T21:56:57.045Z,88.80
2018-05-09T22:02:00.281Z,89.00
2018-05-09T22:07:03.596Z,88.60
2018-05-09T22:12:07.132Z,89.90
2018-05-09T22:17:10.487Z,91.10
2018-05-09T22:22:13.724Z,91.30
2018-05-09T22:27:18.031Z,90.10
2018-05-09T22:32:21.356Z,89.90
2018-05-09T22:37:25.114Z,92.40
2018-05-09T22:42:28.396Z,92.40
2018-05-09T22:47:31.643Z,91.10
2018-05-09T22:52:36.024Z,91.90
2018-05-09T22:57:39.434Z,93.00
2018-05-09T23:02:43.868Z,94.10
2018-05-09T23:07:47.608Z,93.10
2018-05-09T23:12:51.250Z,92.60
2018-05-09T23:17:54.516Z,92.60
2018-05-09T23:22:58.227Z,92.90
2018-05-09T23:28:01.503Z,92.90
2018-05-09T23:33:04.737Z,93.00
2018-05-09T23:38:08.479Z,93.00
2018-05-09T23:43:12.202Z,92.40
2018-05-09T23:48:18.287Z,92.40
2018-05-09T23:53:21.677Z,93.70
2018-05-09T23:58:25.060Z,94.10
